sensor_id;sensor_type;location;lat;lon;timestamp;temperature;humidity
25050;DHT22;13046;49.814;9.918;2023-05-21T00:01:03;16.00;99.90
25050;DHT22;13046;49.814;9.918;2023-05-21T00:03:30;15.90;99.90
25050;DHT22;13046;49.814;9.918;2023-05-21T00:05:56;15.90;99.90
25050;DHT22;13046;49.814;9.918;2023-05-21T00:08:22;15.90;99.90
25050;DHT22;13046;49.814;9.918;2023-05-21T00:10:48;15.90;99.90
25050;DHT22;13046;49.814;9.918;2023-05-21T00:13:14;15.90;99.90
25050;DHT22;13046;49.814;9.918;2023-05-21T00:15:40;15.90;99.90
25050;DHT22;13046;49.814;9.918;2023-05-21T00:18:06;15.90;99.90
25050;DHT22;13046;49.814;9.918;2023-05-21T00:20:31;15.90;99.90
25050;DHT22;13046;49.814;9.918;2023-05-21T00:23:00;15.90;99.90
25050;DHT22;13046;49.814;9.918;2023-05-21T00:25:30;15.90;99.90
25050;DHT22;13046;49.814;9.918;2023-05-21T00:27:55;15.90;99.90
25050;DHT22;13046;49.814;9.918;2023-05-21T00:30:21;15.90;99.90
25050;DHT22;13046;49.814;9.918;2023-05-21T00:32:47;15.90;99.90
25050;DHT22;13046;49.814;9.918;2023-05-21T00:35:13;15.80;99.90
25050;DHT22;13046;49.814;9.918;2023-05-21T00:37:39;15.80;99.90
25050;DHT22;13046;49.814;9.918;2023-05-21T00:40:07;15.80;99.90
25050;DHT22;13046;49.814;9.918;2023-05-21T00:42:33;15.80;99.90
25050;DHT22;13046;49.814;9.918;2023-05-21T00:45:05;15.80;99.90
25050;DHT22;13046;49.814;9.918;2023-05-21T00:47:31;15.80;99.90
25050;DHT22;13046;49.814;9.918;2023-05-21T00:49:57;15.80;99.90
25050;DHT22;13046;49.814;9.918;2023-05-21T00:52:24;15.80;99.90
25050;DHT22;13046;49.814;9.918;2023-05-21T00:54:52;15.80;99.90
25050;DHT22;13046;49.814;9.918;2023-05-21T00:57:19;15.80;99.90
25050;DHT22;13046;49.814;9.918;2023-05-21T00:59:48;15.70;99.90
25050;DHT22;13046;49.814;9.918;2023-05-21T01:02:15;15.80;99.90
25050;DHT22;13046;49.814;9.918;2023-05-21T01:04:46;15.80;99.90
25050;DHT22;13046;49.814;9.918;2023-05-21T01:07:12;15.80;99.90
25050;DHT22;13046;49.814;9.918;2023-05-21T01:09:39;15.80;99.90
25050;DHT22;13046;49.814;9.918;2023-05-21T01:12:07;15.70;99.90
25050;DHT22;13046;49.814;9.918;2023-05-21T01:14:34;15.70;99.90
25050;DHT22;13046;49.814;9.918;2023-05-21T01:17:01;15.70;99.90
25050;DHT22;13046;49.814;9.918;2023-05-21T01:19:27;15.70;99.90
25050;DHT22;13046;49.814;9.918;2023-05-21T01:22:00;15.70;99.90
25050;DHT22;13046;49.814;9.918;2023-05-21T01:24:28;15.60;99.90
25050;DHT22;13046;49.814;9.918;2023-05-21T01:26:54;15.60;99.90
25050;DHT22;13046;49.814;9.918;2023-05-21T01:29:20;15.60;99.90
25050;DHT22;13046;49.814;9.918;2023-05-21T01:34:15;15.60;99.90
25050;DHT22;13046;49.814;9.918;2023-05-21T01:36:48;15.60;99.90
25050;DHT22;13046;49.814;9.918;2023-05-21T01:39:33;15.60;99.90
25050;DHT22;13046;49.814;9.918;2023-05-21T01:42:02;15.50;99.90
25050;DHT22;13046;49.814;9.918;2023-05-21T01:44:31;15.50;99.90
25050;DHT22;13046;49.814;9.918;2023-05-21T01:46:58;15.60;99.90
25050;DHT22;13046;49.814;9.918;2023-05-21T01:49:25;15.50;99.90
25050;DHT22;13046;49.814;9.918;2023-05-21T01:51:51;15.50;99.90
25050;DHT22;13046;49.814;9.918;2023-05-21T01:54:17;15.50;99.90
25050;DHT22;13046;49.814;9.918;2023-05-21T01:56:42;15.50;99.90
25050;DHT22;13046;49.814;9.918;2023-05-21T01:59:09;15.50;99.90
25050;DHT22;13046;49.814;9.918;2023-05-21T02:01:34;15.40;99.90
25050;DHT22;13046;49.814;9.918;2023-05-21T02:04:00;15.40;99.90
25050;DHT22;13046;49.814;9.918;2023-05-21T02:06:26;15.30;99.90
25050;DHT22;13046;49.814;9.918;2023-05-21T02:08:52;15.30;99.90
25050;DHT22;13046;49.814;9.918;2023-05-21T02:11:17;15.30;99.90
25050;DHT22;13046;49.814;9.918;2023-05-21T02:13:43;15.30;99.90
25050;DHT22;13046;49.814;9.918;2023-05-21T02:16:11;15.20;99.90
25050;DHT22;13046;49.814;9.918;2023-05-21T02:18:39;15.20;99.90
25050;DHT22;13046;49.814;9.918;2023-05-21T02:21:08;15.20;99.90
25050;DHT22;13046;49.814;9.918;2023-05-21T02:23:36;15.20;99.90
25050;DHT22;13046;49.814;9.918;2023-05-21T02:26:02;15.10;99.90
25050;DHT22;13046;49.814;9.918;2023-05-21T02:28:28;15.20;99.90
25050;DHT22;13046;49.814;9.918;2023-05-21T02:30:55;15.20;99.90
25050;DHT22;13046;49.814;9.918;2023-05-21T02:33:21;15.10;99.90
25050;DHT22;13046;49.814;9.918;2023-05-21T02:35:47;15.10;99.90
25050;DHT22;13046;49.814;9.918;2023-05-21T02:38:13;15.10;99.90
25050;DHT22;13046;49.814;9.918;2023-05-21T02:40:39;15.20;99.90
25050;DHT22;13046;49.814;9.918;2023-05-21T02:43:05;15.20;99.90
25050;DHT22;13046;49.814;9.918;2023-05-21T02:45:31;15.20;99.90
25050;DHT22;13046;49.814;9.918;2023-05-21T02:47:57;15.20;99.90
25050;DHT22;13046;49.814;9.918;2023-05-21T02:50:23;15.30;99.90
25050;DHT22;13046;49.814;9.918;2023-05-21T02:52:54;15.40;99.90
25050;DHT22;13046;49.814;9.918;2023-05-21T02:55:20;15.40;99.90
25050;DHT22;13046;49.814;9.918;2023-05-21T02:57:47;15.50;99.90
25050;DHT22;13046;49.814;9.918;2023-05-21T03:00:13;15.60;99.90
25050;DHT22;13046;49.814;9.918;2023-05-21T03:02:41;15.60;99.90
25050;DHT22;13046;49.814;9.918;2023-05-21T03:05:07;15.60;99.90
25050;DHT22;13046;49.814;9.918;2023-05-21T03:07:33;15.60;99.90
25050;DHT22;13046;49.814;9.918;2023-05-21T03:09:58;15.60;99.90
25050;DHT22;13046;49.814;9.918;2023-05-21T03:12:24;15.70;99.90
25050;DHT22;13046;49.814;9.918;2023-05-21T03:14:50;15.70;99.90
25050;DHT22;13046;49.814;9.918;2023-05-21T03:17:16;15.70;99.90
25050;DHT22;13046;49.814;9.918;2023-05-21T03:19:42;15.70;99.90
25050;DHT22;13046;49.814;9.918;2023-05-21T03:22:09;15.70;99.90
25050;DHT22;13046;49.814;9.918;2023-05-21T03:24:39;15.60;99.90
25050;DHT22;13046;49.814;9.918;2023-05-21T03:27:06;15.60;99.90
25050;DHT22;13046;49.814;9.918;2023-05-21T03:29:33;15.60;99.90
25050;DHT22;13046;49.814;9.918;2023-05-21T03:32:00;15.60;99.90
25050;DHT22;13046;49.814;9.918;2023-05-21T03:34:26;15.50;99.90
25050;DHT22;13046;49.814;9.918;2023-05-21T03:36:52;15.50;99.90
25050;DHT22;13046;49.814;9.918;2023-05-21T03:39:19;15.50;99.90
25050;DHT22;13046;49.814;9.918;2023-05-21T03:41:45;15.40;99.90
25050;DHT22;13046;49.814;9.918;2023-05-21T03:44:18;15.40;99.90
25050;DHT22;13046;49.814;9.918;2023-05-21T03:46:53;15.40;99.90
25050;DHT22;13046;49.814;9.918;2023-05-21T03:49:31;15.40;99.90
25050;DHT22;13046;49.814;9.918;2023-05-21T03:51:57;15.30;99.90
25050;DHT22;13046;49.814;9.918;2023-05-21T03:54:24;15.30;99.90
25050;DHT22;13046;49.814;9.918;2023-05-21T03:56:53;15.30;99.90
25050;DHT22;13046;49.814;9.918;2023-05-21T03:59:19;15.30;99.90
25050;DHT22;13046;49.814;9.918;2023-05-21T04:01:45;15.30;99.90
25050;DHT22;13046;49.814;9.918;2023-05-21T04:04:13;15.30;99.90
25050;DHT22;13046;49.814;9.918;2023-05-21T04:06:39;15.30;99.90
25050;DHT22;13046;49.814;9.918;2023-05-21T04:09:06;15.30;99.90
25050;DHT22;13046;49.814;9.918;2023-05-21T04:11:32;15.30;99.90
25050;DHT22;13046;49.814;9.918;2023-05-21T04:13:58;15.30;99.90
25050;DHT22;13046;49.814;9.918;2023-05-21T04:16:23;15.30;99.90
25050;DHT22;13046;49.814;9.918;2023-05-21T04:18:50;15.30;99.90
25050;DHT22;13046;49.814;9.918;2023-05-21T04:21:16;15.30;99.90
25050;DHT22;13046;49.814;9.918;2023-05-21T04:23:43;15.40;99.90
25050;DHT22;13046;49.814;9.918;2023-05-21T04:26:20;15.50;99.90
25050;DHT22;13046;49.814;9.918;2023-05-21T04:28:47;15.50;99.90
25050;DHT22;13046;49.814;9.918;2023-05-21T04:31:12;15.60;99.90
25050;DHT22;13046;49.814;9.918;2023-05-21T04:33:38;15.60;99.90
25050;DHT22;13046;49.814;9.918;2023-05-21T04:36:06;15.60;99.90
25050;DHT22;13046;49.814;9.918;2023-05-21T04:38:35;15.60;99.90
25050;DHT22;13046;49.814;9.918;2023-05-21T04:41:03;15.70;99.90
25050;DHT22;13046;49.814;9.918;2023-05-21T04:43:29;15.70;99.90
25050;DHT22;13046;49.814;9.918;2023-05-21T04:45:56;15.70;99.90
25050;DHT22;13046;49.814;9.918;2023-05-21T04:48:23;15.70;99.90
25050;DHT22;13046;49.814;9.918;2023-05-21T04:50:51;15.80;99.90
25050;DHT22;13046;49.814;9.918;2023-05-21T04:53:18;15.80;99.90
25050;DHT22;13046;49.814;9.918;2023-05-21T04:55:44;16.00;99.90
25050;DHT22;13046;49.814;9.918;2023-05-21T04:58:11;16.10;99.90
25050;DHT22;13046;49.814;9.918;2023-05-21T05:00:37;16.20;99.90
25050;DHT22;13046;49.814;9.918;2023-05-21T05:03:03;16.30;99.90
25050;DHT22;13046;49.814;9.918;2023-05-21T05:05:29;16.40;99.90
25050;DHT22;13046;49.814;9.918;2023-05-21T05:07:55;16.40;99.90
25050;DHT22;13046;49.814;9.918;2023-05-21T05:10:22;16.60;99.90
25050;DHT22;13046;49.814;9.918;2023-05-21T05:12:48;16.70;99.90
25050;DHT22;13046;49.814;9.918;2023-05-21T05:15:14;16.70;99.90
25050;DHT22;13046;49.814;9.918;2023-05-21T05:17:40;16.80;99.90
25050;DHT22;13046;49.814;9.918;2023-05-21T05:20:07;16.90;99.90
25050;DHT22;13046;49.814;9.918;2023-05-21T05:22:32;17.00;99.90
25050;DHT22;13046;49.814;9.918;2023-05-21T05:24:58;17.10;99.90
25050;DHT22;13046;49.814;9.918;2023-05-21T05:27:24;17.20;99.90
25050;DHT22;13046;49.814;9.918;2023-05-21T05:29:50;17.30;99.90
25050;DHT22;13046;49.814;9.918;2023-05-21T05:32:16;17.40;99.90
25050;DHT22;13046;49.814;9.918;2023-05-21T05:34:44;17.40;99.90
25050;DHT22;13046;49.814;9.918;2023-05-21T05:37:10;17.40;99.90
25050;DHT22;13046;49.814;9.918;2023-05-21T05:39:37;17.50;99.90
25050;DHT22;13046;49.814;9.918;2023-05-21T05:42:03;17.50;99.90
25050;DHT22;13046;49.814;9.918;2023-05-21T05:44:29;17.60;99.90
25050;DHT22;13046;49.814;9.918;2023-05-21T05:46:55;17.60;99.90
25050;DHT22;13046;49.814;9.918;2023-05-21T05:49:20;17.60;99.90
25050;DHT22;13046;49.814;9.918;2023-05-21T05:51:46;17.60;99.90
25050;DHT22;13046;49.814;9.918;2023-05-21T05:54:12;17.60;99.90
25050;DHT22;13046;49.814;9.918;2023-05-21T05:56:37;17.60;99.90
25050;DHT22;13046;49.814;9.918;2023-05-21T05:59:04;17.70;99.90
25050;DHT22;13046;49.814;9.918;2023-05-21T06:01:32;17.60;99.90
25050;DHT22;13046;49.814;9.918;2023-05-21T06:03:58;17.70;99.90
25050;DHT22;13046;49.814;9.918;2023-05-21T06:06:24;17.80;99.90
25050;DHT22;13046;49.814;9.918;2023-05-21T06:08:50;18.00;99.90
25050;DHT22;13046;49.814;9.918;2023-05-21T06:11:18;18.00;99.90
25050;DHT22;13046;49.814;9.918;2023-05-21T06:13:44;18.00;99.90
25050;DHT22;13046;49.814;9.918;2023-05-21T06:16:10;18.10;99.90
25050;DHT22;13046;49.814;9.918;2023-05-21T06:18:37;18.20;99.90
25050;DHT22;13046;49.814;9.918;2023-05-21T06:21:03;18.40;99.90
25050;DHT22;13046;49.814;9.918;2023-05-21T06:23:29;18.50;99.90
25050;DHT22;13046;49.814;9.918;2023-05-21T06:25:57;18.50;99.90
25050;DHT22;13046;49.814;9.918;2023-05-21T06:28:24;18.60;99.90
25050;DHT22;13046;49.814;9.918;2023-05-21T06:30:51;18.70;99.90
25050;DHT22;13046;49.814;9.918;2023-05-21T06:33:17;18.60;99.90
25050;DHT22;13046;49.814;9.918;2023-05-21T06:35:43;18.60;99.90
25050;DHT22;13046;49.814;9.918;2023-05-21T06:38:10;18.60;99.90
25050;DHT22;13046;49.814;9.918;2023-05-21T06:40:35;18.80;99.90
25050;DHT22;13046;49.814;9.918;2023-05-21T06:43:01;18.90;99.90
25050;DHT22;13046;49.814;9.918;2023-05-21T06:45:35;19.00;99.90
25050;DHT22;13046;49.814;9.918;2023-05-21T06:48:07;19.10;99.90
25050;DHT22;13046;49.814;9.918;2023-05-21T06:50:33;19.10;99.90
25050;DHT22;13046;49.814;9.918;2023-05-21T06:52:59;19.10;99.90
25050;DHT22;13046;49.814;9.918;2023-05-21T06:55:27;19.10;99.90
25050;DHT22;13046;49.814;9.918;2023-05-21T06:58:14;19.20;99.90
25050;DHT22;13046;49.814;9.918;2023-05-21T07:00:40;19.30;99.90
25050;DHT22;13046;49.814;9.918;2023-05-21T07:03:06;19.40;99.90
25050;DHT22;13046;49.814;9.918;2023-05-21T07:05:31;19.50;99.90
25050;DHT22;13046;49.814;9.918;2023-05-21T07:07:57;19.60;99.90
25050;DHT22;13046;49.814;9.918;2023-05-21T07:10:23;19.80;99.90
25050;DHT22;13046;49.814;9.918;2023-05-21T07:12:48;20.10;99.90
25050;DHT22;13046;49.814;9.918;2023-05-21T07:15:14;20.30;99.90
25050;DHT22;13046;49.814;9.918;2023-05-21T07:17:39;20.40;99.90
25050;DHT22;13046;49.814;9.918;2023-05-21T07:20:07;20.50;99.90
25050;DHT22;13046;49.814;9.918;2023-05-21T07:22:37;20.60;99.90
25050;DHT22;13046;49.814;9.918;2023-05-21T07:25:04;20.60;99.90
25050;DHT22;13046;49.814;9.918;2023-05-21T07:27:30;20.50;99.90
25050;DHT22;13046;49.814;9.918;2023-05-21T07:29:56;20.70;99.90
25050;DHT22;13046;49.814;9.918;2023-05-21T07:32:22;20.90;99.90
25050;DHT22;13046;49.814;9.918;2023-05-21T07:34:47;21.00;99.90
25050;DHT22;13046;49.814;9.918;2023-05-21T07:37:14;21.10;99.90
25050;DHT22;13046;49.814;9.918;2023-05-21T07:39:40;21.30;99.90
25050;DHT22;13046;49.814;9.918;2023-05-21T07:42:06;21.60;99.90
25050;DHT22;13046;49.814;9.918;2023-05-21T07:44:32;21.70;99.90
25050;DHT22;13046;49.814;9.918;2023-05-21T07:46:57;21.80;99.90
25050;DHT22;13046;49.814;9.918;2023-05-21T07:49:23;21.90;99.90
25050;DHT22;13046;49.814;9.918;2023-05-21T07:51:49;22.10;99.90
25050;DHT22;13046;49.814;9.918;2023-05-21T07:54:15;22.10;99.90
25050;DHT22;13046;49.814;9.918;2023-05-21T07:56:41;22.30;99.90
25050;DHT22;13046;49.814;9.918;2023-05-21T07:59:10;22.50;99.90
25050;DHT22;13046;49.814;9.918;2023-05-21T08:01:36;22.70;99.90
25050;DHT22;13046;49.814;9.918;2023-05-21T08:04:02;22.90;99.90
25050;DHT22;13046;49.814;9.918;2023-05-21T08:06:31;22.90;99.90
25050;DHT22;13046;49.814;9.918;2023-05-21T08:08:59;22.90;99.90
25050;DHT22;13046;49.814;9.918;2023-05-21T08:11:27;22.50;99.90
25050;DHT22;13046;49.814;9.918;2023-05-21T08:13:53;22.60;99.90
25050;DHT22;13046;49.814;9.918;2023-05-21T08:16:20;22.70;99.90
25050;DHT22;13046;49.814;9.918;2023-05-21T08:18:48;22.70;99.90
25050;DHT22;13046;49.814;9.918;2023-05-21T08:21:13;22.80;99.90
25050;DHT22;13046;49.814;9.918;2023-05-21T08:23:39;22.90;99.90
25050;DHT22;13046;49.814;9.918;2023-05-21T08:26:05;22.80;99.90
25050;DHT22;13046;49.814;9.918;2023-05-21T08:28:31;22.70;99.90
25050;DHT22;13046;49.814;9.918;2023-05-21T08:30:58;22.80;99.90
25050;DHT22;13046;49.814;9.918;2023-05-21T08:33:24;23.10;99.90
25050;DHT22;13046;49.814;9.918;2023-05-21T08:35:50;23.00;99.90
25050;DHT22;13046;49.814;9.918;2023-05-21T08:38:23;23.20;99.90
25050;DHT22;13046;49.814;9.918;2023-05-21T08:41:12;23.30;99.90
25050;DHT22;13046;49.814;9.918;2023-05-21T08:43:38;23.50;99.90
25050;DHT22;13046;49.814;9.918;2023-05-21T08:46:04;23.40;99.90
25050;DHT22;13046;49.814;9.918;2023-05-21T08:48:36;23.60;99.90
25050;DHT22;13046;49.814;9.918;2023-05-21T08:51:02;23.80;99.90
25050;DHT22;13046;49.814;9.918;2023-05-21T08:53:32;23.80;99.90
25050;DHT22;13046;49.814;9.918;2023-05-21T08:56:00;24.30;99.90
25050;DHT22;13046;49.814;9.918;2023-05-21T08:58:46;24.30;99.90
25050;DHT22;13046;49.814;9.918;2023-05-21T09:01:16;24.30;99.90
25050;DHT22;13046;49.814;9.918;2023-05-21T09:03:46;24.50;99.90
25050;DHT22;13046;49.814;9.918;2023-05-21T09:06:12;24.60;99.90
25050;DHT22;13046;49.814;9.918;2023-05-21T09:08:43;24.60;99.90
25050;DHT22;13046;49.814;9.918;2023-05-21T09:11:30;24.40;99.90
25050;DHT22;13046;49.814;9.918;2023-05-21T09:13:58;24.50;99.90
25050;DHT22;13046;49.814;9.918;2023-05-21T09:16:32;24.70;99.90
25050;DHT22;13046;49.814;9.918;2023-05-21T09:18:58;25.00;99.90
25050;DHT22;13046;49.814;9.918;2023-05-21T09:21:29;25.50;99.90
25050;DHT22;13046;49.814;9.918;2023-05-21T09:23:59;25.30;99.90
25050;DHT22;13046;49.814;9.918;2023-05-21T09:26:26;25.30;99.90
25050;DHT22;13046;49.814;9.918;2023-05-21T09:28:59;24.80;99.90
25050;DHT22;13046;49.814;9.918;2023-05-21T09:31:25;24.90;99.90
25050;DHT22;13046;49.814;9.918;2023-05-21T09:33:51;25.00;99.90
25050;DHT22;13046;49.814;9.918;2023-05-21T09:36:19;25.20;99.90
25050;DHT22;13046;49.814;9.918;2023-05-21T09:38:47;25.40;99.90
25050;DHT22;13046;49.814;9.918;2023-05-21T09:41:13;25.50;99.90
25050;DHT22;13046;49.814;9.918;2023-05-21T09:43:42;25.60;99.90
25050;DHT22;13046;49.814;9.918;2023-05-21T09:46:09;25.60;99.90
25050;DHT22;13046;49.814;9.918;2023-05-21T09:48:37;25.80;99.90
25050;DHT22;13046;49.814;9.918;2023-05-21T09:51:10;26.00;99.90
25050;DHT22;13046;49.814;9.918;2023-05-21T09:56:29;25.80;99.90
25050;DHT22;13046;49.814;9.918;2023-05-21T09:59:00;25.80;99.90
25050;DHT22;13046;49.814;9.918;2023-05-21T10:01:30;26.00;99.90
25050;DHT22;13046;49.814;9.918;2023-05-21T10:03:57;26.10;99.90
25050;DHT22;13046;49.814;9.918;2023-05-21T10:06:29;26.20;99.90
25050;DHT22;13046;49.814;9.918;2023-05-21T10:08:58;26.00;99.90
25050;DHT22;13046;49.814;9.918;2023-05-21T10:11:25;26.00;99.90
25050;DHT22;13046;49.814;9.918;2023-05-21T10:13:57;26.40;99.90
25050;DHT22;13046;49.814;9.918;2023-05-21T10:16:25;26.40;99.90
25050;DHT22;13046;49.814;9.918;2023-05-21T10:18:52;26.50;99.90
25050;DHT22;13046;49.814;9.918;2023-05-21T10:21:20;26.60;99.90
25050;DHT22;13046;49.814;9.918;2023-05-21T10:23:47;26.50;99.90
25050;DHT22;13046;49.814;9.918;2023-05-21T10:26:14;26.40;99.90
25050;DHT22;13046;49.814;9.918;2023-05-21T10:28:41;26.10;99.90
25050;DHT22;13046;49.814;9.918;2023-05-21T10:31:07;26.50;99.90
25050;DHT22;13046;49.814;9.918;2023-05-21T10:33:34;26.30;99.90
25050;DHT22;13046;49.814;9.918;2023-05-21T10:36:00;26.50;99.90
25050;DHT22;13046;49.814;9.918;2023-05-21T10:38:26;26.90;99.90
25050;DHT22;13046;49.814;9.918;2023-05-21T10:40:54;27.10;99.90
25050;DHT22;13046;49.814;9.918;2023-05-21T10:52:30;27.10;99.90
25050;DHT22;13046;49.814;9.918;2023-05-21T10:59:57;27.10;99.90
25050;DHT22;13046;49.814;9.918;2023-05-21T11:02:25;27.10;99.90
25050;DHT22;13046;49.814;9.918;2023-05-21T11:04:58;27.20;99.90
25050;DHT22;13046;49.814;9.918;2023-05-21T11:07:55;27.40;99.90
25050;DHT22;13046;49.814;9.918;2023-05-21T11:10:34;27.20;99.90
25050;DHT22;13046;49.814;9.918;2023-05-21T11:13:14;27.00;99.90
25050;DHT22;13046;49.814;9.918;2023-05-21T11:21:18;26.70;99.90
25050;DHT22;13046;49.814;9.918;2023-05-21T11:26:19;27.60;99.90
25050;DHT22;13046;49.814;9.918;2023-05-21T11:31:29;27.40;99.90
25050;DHT22;13046;49.814;9.918;2023-05-21T11:34:11;27.50;99.90
25050;DHT22;13046;49.814;9.918;2023-05-21T11:39:49;27.60;99.90
25050;DHT22;13046;49.814;9.918;2023-05-21T11:42:37;27.20;99.90
25050;DHT22;13046;49.814;9.918;2023-05-21T11:45:04;27.30;99.90
25050;DHT22;13046;49.814;9.918;2023-05-21T11:47:30;27.40;99.90
25050;DHT22;13046;49.814;9.918;2023-05-21T11:50:03;27.70;99.90
25050;DHT22;13046;49.814;9.918;2023-05-21T11:52:29;27.90;99.90
25050;DHT22;13046;49.814;9.918;2023-05-21T11:54:56;28.00;99.90
25050;DHT22;13046;49.814;9.918;2023-05-21T11:57:27;28.40;99.90
25050;DHT22;13046;49.814;9.918;2023-05-21T11:59:55;28.60;99.90
25050;DHT22;13046;49.814;9.918;2023-05-21T12:02:25;29.00;99.90
25050;DHT22;13046;49.814;9.918;2023-05-21T12:04:53;29.20;99.90
25050;DHT22;13046;49.814;9.918;2023-05-21T12:07:20;29.30;99.90
25050;DHT22;13046;49.814;9.918;2023-05-21T12:09:50;29.00;99.90
25050;DHT22;13046;49.814;9.918;2023-05-21T12:12:23;28.70;99.90
25050;DHT22;13046;49.814;9.918;2023-05-21T12:14:53;29.00;99.90
25050;DHT22;13046;49.814;9.918;2023-05-21T12:17:24;29.10;99.90
25050;DHT22;13046;49.814;9.918;2023-05-21T12:19:52;28.90;99.90
25050;DHT22;13046;49.814;9.918;2023-05-21T12:22:19;29.10;99.90
25050;DHT22;13046;49.814;9.918;2023-05-21T12:24:45;29.10;99.90
25050;DHT22;13046;49.814;9.918;2023-05-21T12:27:11;29.10;99.90
25050;DHT22;13046;49.814;9.918;2023-05-21T12:29:39;29.20;99.90
25050;DHT22;13046;49.814;9.918;2023-05-21T12:32:07;28.90;99.90
25050;DHT22;13046;49.814;9.918;2023-05-21T12:37:09;27.40;99.90
25050;DHT22;13046;49.814;9.918;2023-05-21T12:39:40;27.50;99.90
25050;DHT22;13046;49.814;9.918;2023-05-21T12:42:06;27.90;99.90
25050;DHT22;13046;49.814;9.918;2023-05-21T12:44:32;28.30;99.90
25050;DHT22;13046;49.814;9.918;2023-05-21T12:46:58;28.10;99.90
25050;DHT22;13046;49.814;9.918;2023-05-21T12:49:36;27.90;99.90
25050;DHT22;13046;49.814;9.918;2023-05-21T12:52:08;27.90;99.90
25050;DHT22;13046;49.814;9.918;2023-05-21T12:54:36;27.90;99.90
25050;DHT22;13046;49.814;9.918;2023-05-21T12:59:57;28.20;99.90
25050;DHT22;13046;49.814;9.918;2023-05-21T13:02:28;28.50;99.90
25050;DHT22;13046;49.814;9.918;2023-05-21T13:07:23;29.70;99.90
25050;DHT22;13046;49.814;9.918;2023-05-21T13:09:49;29.70;99.90
25050;DHT22;13046;49.814;9.918;2023-05-21T13:12:27;30.00;99.90
25050;DHT22;13046;49.814;9.918;2023-05-21T13:14:57;30.20;98.80
25050;DHT22;13046;49.814;9.918;2023-05-21T13:17:24;30.10;99.90
25050;DHT22;13046;49.814;9.918;2023-05-21T13:20:17;30.10;99.90
25050;DHT22;13046;49.814;9.918;2023-05-21T13:22:46;29.70;99.80
25050;DHT22;13046;49.814;9.918;2023-05-21T13:25:19;30.00;98.40
25050;DHT22;13046;49.814;9.918;2023-05-21T13:27:46;30.40;99.60
25050;DHT22;13046;49.814;9.918;2023-05-21T13:30:12;30.30;99.60
25050;DHT22;13046;49.814;9.918;2023-05-21T13:32:39;29.80;99.80
25050;DHT22;13046;49.814;9.918;2023-05-21T13:35:05;30.10;99.90
25050;DHT22;13046;49.814;9.918;2023-05-21T13:37:33;30.40;99.90
25050;DHT22;13046;49.814;9.918;2023-05-21T13:40:03;30.30;99.90
25050;DHT22;13046;49.814;9.918;2023-05-21T13:42:30;30.40;99.90
25050;DHT22;13046;49.814;9.918;2023-05-21T13:44:56;30.20;99.90
25050;DHT22;13046;49.814;9.918;2023-05-21T13:47:22;30.10;99.90
25050;DHT22;13046;49.814;9.918;2023-05-21T13:49:48;30.30;99.90
25050;DHT22;13046;49.814;9.918;2023-05-21T13:52:14;30.70;99.90
25050;DHT22;13046;49.814;9.918;2023-05-21T13:54:41;30.50;98.30
25050;DHT22;13046;49.814;9.918;2023-05-21T13:57:07;30.30;99.50
25050;DHT22;13046;49.814;9.918;2023-05-21T13:59:32;30.30;99.90
25050;DHT22;13046;49.814;9.918;2023-05-21T14:01:58;30.40;98.80
25050;DHT22;13046;49.814;9.918;2023-05-21T14:04:24;30.40;98.40
25050;DHT22;13046;49.814;9.918;2023-05-21T14:06:50;30.30;98.60
25050;DHT22;13046;49.814;9.918;2023-05-21T14:09:16;29.70;98.50
25050;DHT22;13046;49.814;9.918;2023-05-21T14:11:42;29.50;99.10
25050;DHT22;13046;49.814;9.918;2023-05-21T14:14:08;29.60;99.40
25050;DHT22;13046;49.814;9.918;2023-05-21T14:16:34;29.80;96.30
25050;DHT22;13046;49.814;9.918;2023-05-21T14:18:59;30.00;97.60
25050;DHT22;13046;49.814;9.918;2023-05-21T14:21:25;30.10;98.40
25050;DHT22;13046;49.814;9.918;2023-05-21T14:23:51;30.30;98.90
25050;DHT22;13046;49.814;9.918;2023-05-21T14:26:17;30.30;97.50
25050;DHT22;13046;49.814;9.918;2023-05-21T14:28:43;30.30;97.40
25050;DHT22;13046;49.814;9.918;2023-05-21T14:31:10;30.40;96.40
25050;DHT22;13046;49.814;9.918;2023-05-21T14:33:36;30.30;98.10
25050;DHT22;13046;49.814;9.918;2023-05-21T14:36:06;30.50;96.80
25050;DHT22;13046;49.814;9.918;2023-05-21T14:38:31;30.50;96.90
25050;DHT22;13046;49.814;9.918;2023-05-21T14:40:57;30.50;98.30
25050;DHT22;13046;49.814;9.918;2023-05-21T14:43:23;30.50;97.70
25050;DHT22;13046;49.814;9.918;2023-05-21T14:45:49;30.20;97.70
25050;DHT22;13046;49.814;9.918;2023-05-21T14:48:18;29.90;97.10
25050;DHT22;13046;49.814;9.918;2023-05-21T14:50:50;29.80;97.60
25050;DHT22;13046;49.814;9.918;2023-05-21T14:53:16;29.90;98.00
25050;DHT22;13046;49.814;9.918;2023-05-21T14:55:42;30.10;99.00
25050;DHT22;13046;49.814;9.918;2023-05-21T14:58:08;30.60;98.20
25050;DHT22;13046;49.814;9.918;2023-05-21T15:00:34;30.90;98.30
25050;DHT22;13046;49.814;9.918;2023-05-21T15:03:00;30.80;96.90
25050;DHT22;13046;49.814;9.918;2023-05-21T15:05:27;30.70;97.00
25050;DHT22;13046;49.814;9.918;2023-05-21T15:07:56;30.80;96.80
25050;DHT22;13046;49.814;9.918;2023-05-21T15:10:27;30.80;95.50
25050;DHT22;13046;49.814;9.918;2023-05-21T15:12:53;30.70;96.90
25050;DHT22;13046;49.814;9.918;2023-05-21T15:15:19;30.50;98.00
25050;DHT22;13046;49.814;9.918;2023-05-21T15:17:49;30.30;95.90
25050;DHT22;13046;49.814;9.918;2023-05-21T15:20:15;30.30;97.00
25050;DHT22;13046;49.814;9.918;2023-05-21T15:22:41;30.10;95.90
25050;DHT22;13046;49.814;9.918;2023-05-21T15:25:07;30.10;96.30
25050;DHT22;13046;49.814;9.918;2023-05-21T15:27:33;30.10;97.30
25050;DHT22;13046;49.814;9.918;2023-05-21T15:29:59;30.00;96.00
25050;DHT22;13046;49.814;9.918;2023-05-21T15:32:25;30.10;95.90
25050;DHT22;13046;49.814;9.918;2023-05-21T15:34:51;30.00;94.60
25050;DHT22;13046;49.814;9.918;2023-05-21T15:37:16;30.30;94.60
25050;DHT22;13046;49.814;9.918;2023-05-21T15:39:43;30.60;95.00
25050;DHT22;13046;49.814;9.918;2023-05-21T15:42:09;30.60;95.20
25050;DHT22;13046;49.814;9.918;2023-05-21T15:44:36;30.60;93.20
25050;DHT22;13046;49.814;9.918;2023-05-21T15:47:02;30.60;95.40
25050;DHT22;13046;49.814;9.918;2023-05-21T15:49:28;30.50;93.60
25050;DHT22;13046;49.814;9.918;2023-05-21T15:51:53;30.10;94.10
25050;DHT22;13046;49.814;9.918;2023-05-21T15:54:21;30.10;94.10
25050;DHT22;13046;49.814;9.918;2023-05-21T15:56:48;30.40;94.00
25050;DHT22;13046;49.814;9.918;2023-05-21T15:59:14;30.50;93.50
25050;DHT22;13046;49.814;9.918;2023-05-21T16:01:39;30.70;94.70
25050;DHT22;13046;49.814;9.918;2023-05-21T16:04:05;30.60;94.10
25050;DHT22;13046;49.814;9.918;2023-05-21T16:06:31;30.50;93.00
25050;DHT22;13046;49.814;9.918;2023-05-21T16:08:57;30.20;94.30
25050;DHT22;13046;49.814;9.918;2023-05-21T16:11:24;30.30;95.50
25050;DHT22;13046;49.814;9.918;2023-05-21T16:13:51;30.50;94.40